Página principal
METAR-TAF:

METAR-TAF

Aeroportos :

Majuro, Ilhas Marshall

latitude: 07-04N, longitude: 171-17E, altura: 2 m

Observação actual do tempo

O boletim foi feito há 14 horas e 5 minutos, às 22:52 UTC
Vento 10 kt de sudeste
Temperatura 29°C
Humidade 79%
Pressão 1009 hPa
Visibilidade: 24.1 km
Poucas nuvensa uma altura de 1500 ft
Nuvens dispersasa uma altura de 5000 ft
Nuvens fragmentadasa uma altura de 12000 ft
Nuvens fragmentadasa uma altura de 30000 ft

METAR: PKMJ 162252Z 13010KT 15SM FEW015 SCT050 BKN120 BKN300 29/25 A2979 RMK LAST

Hora: 00:57 (12:57 UTC)

Previsão

O boletim foi feito há 1 hora e 19 minutos, às 11:38 UTC
Previsão válida de 17 às 12 UTC a 18 às 12 UTC
Vento 8 kt de este
Visibilidade: 10 km
Nuvens dispersasa uma altura de 1400 ft
Nuvens dispersasa uma altura de 4500 ft
Nuvens fragmentadasa uma altura de 11000 ft
aguaceiros nas vizinhanças

TAF: PKMJ 171138Z 1712/1812 09008KT P6SM VCSH SCT014 SCT045 BKN110

Observações e previsões do tempo de mais de 4000 aeroportos (mensagens METAR e TAF).

As estações disponíveis são os pontos amarelos e vermelhos sobre o mapa.

Mova o rato sobre o mapa para ver o nome da estação.

Depois clique no ponto para visualizar as observações e previsões meteorológicas.

Para alterar o mapa : clique nos botões verdes com uma cruz preta para aumentar o zoom; no botão verde com uma pitada de zoom; ou nas setas verdes para mapas adjacentes.


METAR-TAF: